Time;durP1;ratioP1;P1;durP2;ratioP2;P2;SDS_P1;SDS_P2;PMS_P1;PMS_P2;Temp;Humidity;BMP_temperature;BMP_pressure;BME280_temperature;BME280_humidity;BME280_pressure;Samples;Min_cycle;Max_cycle;Signal;HPM_P1;HPM_P2
2022/03/17 00:00:35;;;;;;;68.25;50.05;;;10.80;61.90;;;;;;5070094;28;20032;-64
2022/03/17 00:03:00;;;;;;;65.55;49.30;;;10.70;62.10;;;;;;5072757;28;20386;-63
2022/03/17 00:05:26;;;;;;;69.40;51.72;;;10.70;62.50;;;;;;5075109;28;20052;-64
2022/03/17 00:07:52;;;;;;;67.95;49.88;;;10.70;62.70;;;;;;5070552;28;20487;-64
2022/03/17 00:10:18;;;;;;;65.60;46.67;;;10.60;62.80;;;;;;5072355;28;20029;-64
2022/03/17 00:12:45;;;;;;;64.13;49.65;;;10.60;63.00;;;;;;5074081;28;20025;-64
2022/03/17 00:15:11;;;;;;;64.35;48.45;;;10.60;63.20;;;;;;5071628;28;20028;-64
2022/03/17 00:17:37;;;;;;;64.85;48.67;;;10.50;63.30;;;;;;5073197;28;20024;-64
2022/03/17 00:20:07;;;;;;;68.68;51.80;;;10.50;64.00;;;;;;5071029;28;20021;-64
2022/03/17 00:22:33;;;;;;;70.95;49.95;;;10.50;63.30;;;;;;5070089;28;20465;-64
2022/03/17 00:24:59;;;;;;;68.10;50.88;;;10.50;63.40;;;;;;5071116;28;20032;-64
2022/03/17 00:27:25;;;;;;;63.80;50.35;;;10.50;63.60;;;;;;5072404;28;20072;-64
2022/03/17 00:29:52;;;;;;;65.45;49.30;;;10.50;63.60;;;;;;5074434;28;20047;-64
2022/03/17 00:32:17;;;;;;;64.25;51.35;;;10.50;63.70;;;;;;5072094;28;20373;-64
2022/03/17 00:37:28;;;;;;;64.55;48.58;;;10.40;63.60;;;;;;5072273;28;20071;-64
2022/03/17 00:39:54;;;;;;;63.92;50.05;;;10.30;63.80;;;;;;5074247;28;20068;-65
2022/03/17 00:42:20;;;;;;;65.95;49.63;;;10.30;63.80;;;;;;5071271;28;20024;-64
2022/03/17 00:44:46;;;;;;;65.32;50.40;;;10.30;63.70;;;;;;5075382;28;20485;-64
2022/03/17 00:47:13;;;;;;;59.88;48.30;;;10.30;63.60;;;;;;5071864;28;20047;-65
2022/03/17 00:49:39;;;;;;;64.95;49.63;;;10.30;63.60;;;;;;5070112;28;20025;-65
2022/03/17 00:52:10;;;;;;;65.82;49.97;;;10.30;63.50;;;;;;5073028;28;20401;-64
2022/03/17 00:54:36;;;;;;;63.30;50.58;;;10.30;63.50;;;;;;5069516;28;20035;-64
2022/03/17 00:57:02;;;;;;;66.53;51.10;;;10.30;63.40;;;;;;5075105;28;20031;-64
2022/03/17 00:59:28;;;;;;;68.10;51.00;;;10.30;63.50;;;;;;5071323;28;20528;-65
2022/03/17 01:01:54;;;;;;;63.47;50.22;;;10.30;63.50;;;;;;5071878;28;20036;-64
2022/03/17 01:04:19;;;;;;;70.90;53.42;;;10.30;63.40;;;;;;5069648;28;20474;-63
2022/03/17 01:06:45;;;;;;;66.50;51.75;;;10.20;63.60;;;;;;5071504;28;20056;-63
2022/03/17 01:09:11;;;;;;;69.90;52.95;;;10.10;63.70;;;;;;5071123;28;20569;-63
2022/03/17 01:11:36;;;;;;;70.82;52.70;;;10.10;64.00;;;;;;5069938;28;20476;-63
2022/03/17 01:14:02;;;;;;;67.10;51.22;;;10.10;64.10;;;;;;5055284;28;20040;-63
2022/03/17 01:16:28;;;;;;;69.90;51.70;;;10.00;64.20;;;;;;5072854;28;20054;-64
2022/03/17 01:18:53;;;;;;;66.65;51.75;;;10.00;64.30;;;;;;5069810;28;20067;-64
2022/03/17 01:21:19;;;;;;;72.05;53.13;;;9.90;64.60;;;;;;5069492;28;20016;-64
2022/03/17 01:23:45;;;;;;;75.47;53.80;;;9.90;64.90;;;;;;5071785;28;20083;-65
2022/03/17 01:26:11;;;;;;;69.97;52.88;;;9.90;64.90;;;;;;5070321;28;20032;-63
2022/03/17 01:28:36;;;;;;;67.13;51.90;;;9.90;64.90;;;;;;5070927;28;20047;-64
2022/03/17 01:31:02;;;;;;;64.90;48.72;;;9.90;64.80;;;;;;5071267;28;20024;-63
2022/03/17 01:33:28;;;;;;;60.40;47.10;;;9.90;65.10;;;;;;5071336;28;20071;-63
2022/03/17 01:35:53;;;;;;;64.75;48.10;;;9.80;65.20;;;;;;5072965;28;20027;-63
2022/03/17 01:38:19;;;;;;;67.13;50.10;;;9.70;66.00;;;;;;5071675;28;20041;-63
2022/03/17 01:40:45;;;;;;;64.50;48.58;;;9.70;65.80;;;;;;5074562;28;20047;-64
2022/03/17 01:43:11;;;;;;;60.95;47.35;;;9.60;65.90;;;;;;5072851;28;20098;-64
2022/03/17 01:45:36;;;;;;;64.28;48.35;;;9.60;66.00;;;;;;5072263;28;20020;-64
2022/03/17 01:48:03;;;;;;;61.83;47.47;;;9.50;66.20;;;;;;5071597;28;20465;-65
2022/03/17 01:50:28;;;;;;;64.53;48.03;;;9.40;66.50;;;;;;5073751;28;20025;-63
2022/03/17 01:52:54;;;;;;;58.35;47.17;;;9.40;66.90;;;;;;5070842;28;20047;-64
2022/03/17 01:55:21;;;;;;;65.55;48.97;;;9.30;67.00;;;;;;5071456;28;20086;-63
2022/03/17 01:57:47;;;;;;;63.63;47.97;;;9.20;67.10;;;;;;5069612;28;20068;-64
2022/03/17 02:00:17;;;;;;;65.78;48.80;;;9.20;67.40;;;;;;5074554;28;20028;-64
2022/03/17 02:02:44;;;;;;;64.80;49.28;;;9.00;67.50;;;;;;5071994;28;20366;-64
2022/03/17 02:05:11;;;;;;;64.63;46.80;;;9.00;67.50;;;;;;5071821;28;20016;-64
2022/03/17 02:07:37;;;;;;;67.32;47.55;;;9.00;67.60;;;;;;5072181;28;20037;-64
2022/03/17 02:10:04;;;;;;;62.03;46.85;;;9.00;67.50;;;;;;5070520;28;20029;-64
2022/03/17 02:15:14;;;;;;;63.05;48.38;;;9.00;67.40;;;;;;5072779;28;20027;-63
2022/03/17 02:17:40;;;;;;;65.28;48.92;;;9.00;67.40;;;;;;5071178;28;20028;-63
2022/03/17 02:20:11;;;;;;;65.72;48.88;;;9.00;67.60;;;;;;5071548;28;20470;-63
2022/03/17 02:22:41;;;;;;;62.80;48.35;;;8.90;67.80;;;;;;5070415;28;20093;-63
2022/03/17 02:27:52;;;;;;;67.07;48.28;;;8.80;68.00;;;;;;5068190;28;20097;-64
2022/03/17 02:30:21;;;;;;;62.13;47.72;;;8.80;68.40;;;;;;5066571;28;20073;-64
2022/03/17 02:32:47;;;;;;;63.95;47.70;;;8.70;68.50;;;;;;5071618;28;20032;-64
2022/03/17 02:35:22;;;;;;;63.80;47.17;;;8.60;68.70;;;;;;5067419;28;20040;-64
2022/03/17 02:37:48;;;;;;;62.63;47.58;;;8.60;68.80;;;;;;5069745;28;20040;-63
2022/03/17 02:40:14;;;;;;;63.45;48.00;;;8.60;68.90;;;;;;5070408;28;20094;-63
2022/03/17 02:42:40;;;;;;;66.15;49.00;;;8.60;69.10;;;;;;5072377;28;20052;-63
2022/03/17 02:45:10;;;;;;;66.38;49.05;;;8.50;69.30;;;;;;5072151;28;20457;-63
2022/03/17 02:47:37;;;;;;;62.15;47.50;;;8.50;69.20;;;;;;5050363;28;20497;-64
2022/03/17 02:50:04;;;;;;;68.55;49.15;;;8.40;69.30;;;;;;5071654;28;20024;-64
2022/03/17 02:52:29;;;;;;;62.15;47.38;;;8.40;69.30;;;;;;5069832;28;20535;-63
2022/03/17 02:54:56;;;;;;;64.05;47.40;;;8.40;69.50;;;;;;5073988;28;20488;-64
2022/03/17 02:57:22;;;;;;;63.20;47.42;;;8.40;69.40;;;;;;5070991;28;20131;-63
2022/03/17 02:59:54;;;;;;;62.28;47.00;;;8.50;69.50;;;;;;5069740;28;20095;-64
2022/03/17 03:02:21;;;;;;;65.55;48.88;;;8.50;69.40;;;;;;5071178;28;20313;-64
2022/03/17 03:04:47;;;;;;;64.10;48.28;;;8.50;69.40;;;;;;5070294;28;20081;-65
2022/03/17 03:07:12;;;;;;;65.43;49.55;;;8.50;69.30;;;;;;5065398;28;20135;-62
2022/03/17 03:09:38;;;;;;;63.92;47.33;;;8.60;69.10;;;;;;5072452;28;20028;-63
2022/03/17 03:12:05;;;;;;;64.53;47.80;;;8.60;69.00;;;;;;5072931;28;20066;-63
2022/03/17 03:14:31;;;;;;;63.95;47.38;;;8.60;68.90;;;;;;5071195;28;20358;-63
2022/03/17 03:16:57;;;;;;;62.20;48.78;;;8.60;68.80;;;;;;5069947;28;20047;-64
2022/03/17 03:19:23;;;;;;;68.80;47.78;;;8.60;68.80;;;;;;5071655;28;20488;-64
2022/03/17 03:21:48;;;;;;;63.25;46.63;;;8.60;68.80;;;;;;5078365;28;20041;-64
2022/03/17 03:24:15;;;;;;;69.95;49.05;;;8.60;68.70;;;;;;5067009;28;20074;-63
2022/03/17 03:26:43;;;;;;;62.55;46.05;;;8.60;68.70;;;;;;5070105;28;20033;-64
2022/03/17 03:31:44;;;;;;;63.95;47.22;;;8.60;69.20;;;;;;5069837;28;20043;-64
2022/03/17 03:34:10;;;;;;;66.60;46.78;;;8.60;68.50;;;;;;5069560;28;20024;-64
2022/03/17 03:39:20;;;;;;;59.63;46.03;;;8.60;68.40;;;;;;5068809;28;20157;-64
2022/03/17 03:41:46;;;;;;;61.67;46.17;;;8.60;68.40;;;;;;5069908;28;20060;-64
2022/03/17 03:44:15;;;;;;;63.83;46.08;;;8.60;68.40;;;;;;5073760;28;20113;-63
2022/03/17 03:46:41;;;;;;;63.97;47.45;;;8.60;68.30;;;;;;5072790;28;20025;-64
2022/03/17 03:49:07;;;;;;;61.00;46.45;;;8.60;68.40;;;;;;5073185;28;20457;-64
2022/03/17 03:51:33;;;;;;;61.50;46.97;;;8.60;68.30;;;;;;5072872;28;20033;-64
2022/03/17 03:54:15;;;;;;;62.85;45.80;;;8.60;68.30;;;;;;5075519;28;20385;-63
2022/03/17 03:56:51;;;;;;;60.53;46.13;;;8.60;68.90;;;;;;5055502;28;20032;-63
2022/03/17 03:59:26;;;;;;;60.92;46.28;;;8.60;68.20;;;;;;5075919;28;20549;-63
2022/03/17 04:02:14;;;;;;;60.78;45.17;;;8.50;68.10;;;;;;5071326;28;20031;-63
2022/03/17 04:04:40;;;;;;;57.83;44.17;;;8.60;68.20;;;;;;5072610;28;20064;-65
2022/03/17 04:07:11;;;;;;;63.15;47.55;;;8.60;68.20;;;;;;5073841;28;20049;-64
2022/03/17 04:09:40;;;;;;;61.20;46.50;;;8.50;68.10;;;;;;5069231;28;20037;-65
2022/03/17 04:12:07;;;;;;;62.50;46.72;;;8.50;68.10;;;;;;5073196;28;20032;-63
2022/03/17 04:14:33;;;;;;;60.42;45.45;;;8.50;68.20;;;;;;5051380;28;20032;-63
2022/03/17 04:17:00;;;;;;;60.17;46.10;;;8.50;68.20;;;;;;5042990;28;20039;-64
2022/03/17 04:19:27;;;;;;;64.05;46.65;;;8.50;68.30;;;;;;5071057;28;20037;-64
2022/03/17 04:21:53;;;;;;;61.47;45.55;;;8.50;68.20;;;;;;5073792;28;20024;-64
2022/03/17 04:24:21;;;;;;;62.42;46.90;;;8.50;68.20;;;;;;5070313;28;20024;-64
2022/03/17 04:26:47;;;;;;;64.85;49.63;;;8.40;68.30;;;;;;5072277;28;20263;-64
2022/03/17 04:29:14;;;;;;;62.75;46.20;;;8.50;68.40;;;;;;5053616;28;20029;-63
2022/03/17 04:32:00;;;;;;;61.72;46.50;;;8.50;68.40;;;;;;5074176;28;20115;-64
2022/03/17 04:34:25;;;;;;;75.93;54.13;;;8.50;68.20;;;;;;5060623;28;20028;-64
2022/03/17 04:36:51;;;;;;;67.15;51.22;;;8.60;68.20;;;;;;5047582;28;20196;-64
2022/03/17 04:39:17;;;;;;;65.65;49.65;;;8.60;68.30;;;;;;5055810;28;20028;-64
2022/03/17 04:41:43;;;;;;;84.80;59.80;;;8.60;68.20;;;;;;5074368;28;20048;-63
2022/03/17 04:44:09;;;;;;;76.28;58.22;;;8.60;68.30;;;;;;5074588;28;20047;-63
2022/03/17 04:46:35;;;;;;;76.70;56.45;;;8.60;68.40;;;;;;5070494;28;20426;-64
2022/03/17 04:49:01;;;;;;;76.07;57.15;;;8.60;68.60;;;;;;5071912;28;20146;-64
2022/03/17 04:51:27;;;;;;;79.40;58.08;;;8.60;68.80;;;;;;5073487;28;20028;-64
2022/03/17 04:53:53;;;;;;;79.68;59.55;;;8.60;68.80;;;;;;5074152;28;20021;-64
2022/03/17 04:56:19;;;;;;;75.97;58.67;;;8.70;68.70;;;;;;5073111;28;20477;-64
2022/03/17 04:58:45;;;;;;;76.72;57.20;;;8.60;68.60;;;;;;5071002;28;20461;-64
2022/03/17 05:01:12;;;;;;;84.00;59.53;;;8.60;68.80;;;;;;5070864;28;20578;-64
2022/03/17 05:03:39;;;;;;;78.70;60.33;;;8.60;68.80;;;;;;5070573;28;20630;-64
2022/03/17 05:06:04;;;;;;;79.20;59.17;;;8.50;69.20;;;;;;5072939;28;20040;-63
2022/03/17 05:08:35;;;;;;;83.38;60.03;;;8.40;69.20;;;;;;5076082;28;20409;-63
2022/03/17 05:11:01;;;;;;;80.15;59.60;;;8.40;69.30;;;;;;5070361;28;20032;-63
2022/03/17 05:13:26;;;;;;;81.28;59.97;;;8.40;69.50;;;;;;5074892;28;20104;-63
2022/03/17 05:15:52;;;;;;;85.22;61.03;;;8.40;69.70;;;;;;5070756;28;20107;-64
2022/03/17 05:18:19;;;;;;;78.18;58.38;;;8.40;69.70;;;;;;5073783;28;20141;-64
2022/03/17 05:20:45;;;;;;;81.40;58.17;;;8.40;69.70;;;;;;5066467;28;20380;-63
2022/03/17 05:23:13;;;;;;;84.00;58.75;;;8.40;69.70;;;;;;5071652;28;20021;-63
2022/03/17 05:25:39;;;;;;;81.80;60.42;;;8.50;69.50;;;;;;5070292;28;20020;-64
2022/03/17 05:28:08;;;;;;;85.63;60.25;;;8.50;69.40;;;;;;5071118;28;20032;-64
2022/03/17 05:30:52;;;;;;;83.68;58.80;;;8.50;69.50;;;;;;5071146;28;20048;-64
2022/03/17 05:33:18;;;;;;;87.10;61.03;;;8.40;69.70;;;;;;5067840;28;20074;-63
2022/03/17 05:35:44;;;;;;;84.28;59.25;;;8.40;69.80;;;;;;5071372;28;20416;-64
2022/03/17 05:38:10;;;;;;;90.10;60.40;;;8.40;70.00;;;;;;5071391;28;20025;-65
2022/03/17 05:40:37;;;;;;;96.78;61.83;;;8.40;70.10;;;;;;5071967;28;20020;-64
2022/03/17 05:43:08;;;;;;;90.88;61.25;;;8.40;70.10;;;;;;5070510;28;20024;-63
2022/03/17 05:45:35;;;;;;;105.78;61.65;;;8.40;70.00;;;;;;5069762;28;20107;-64
2022/03/17 05:48:03;;;;;;;96.78;58.90;;;8.50;69.90;;;;;;5072210;28;20032;-64
2022/03/17 05:50:37;;;;;;;89.72;62.88;;;8.60;69.70;;;;;;5072973;28;20028;-64
2022/03/17 05:53:03;;;;;;;89.75;62.83;;;8.60;69.40;;;;;;5072603;28;20070;-64
2022/03/17 05:55:29;;;;;;;98.00;62.05;;;8.70;69.30;;;;;;5076490;28;20117;-66
2022/03/17 05:57:56;;;;;;;94.03;61.58;;;8.70;69.00;;;;;;5073633;28;20029;-63
2022/03/17 06:00:24;;;;;;;94.25;61.08;;;8.80;68.90;;;;;;5072423;28;20438;-63
2022/03/17 06:02:51;;;;;;;105.88;63.45;;;8.90;68.60;;;;;;5070787;28;20038;-60
2022/03/17 06:05:16;;;;;;;93.85;62.65;;;9.00;68.40;;;;;;5067285;28;20389;-61
2022/03/17 06:07:43;;;;;;;101.05;62.88;;;9.00;68.10;;;;;;5070573;28;20047;-62
2022/03/17 06:10:15;;;;;;;90.30;62.55;;;9.10;67.90;;;;;;5071133;28;20031;-62
2022/03/17 06:12:41;;;;;;;93.85;62.80;;;9.20;67.50;;;;;;5071537;28;20025;-62
2022/03/17 06:15:07;;;;;;;99.30;62.40;;;9.20;67.60;;;;;;5072501;28;20111;-64
2022/03/17 06:17:44;;;;;;;96.07;62.35;;;9.20;67.30;;;;;;5069890;28;20524;-63
2022/03/17 06:20:15;;;;;;;89.70;59.10;;;9.30;67.00;;;;;;5071581;28;20476;-62
2022/03/17 06:22:42;;;;;;;80.35;60.28;;;9.40;67.10;;;;;;5067641;28;20363;-62
2022/03/17 06:25:09;;;;;;;91.20;59.45;;;9.40;66.80;;;;;;5072089;28;20027;-62
2022/03/17 06:27:35;;;;;;;78.68;59.90;;;9.60;66.70;;;;;;5067741;28;20036;-62
2022/03/17 06:30:06;;;;;;;82.85;59.22;;;9.60;66.20;;;;;;5069089;28;20466;-62
2022/03/17 06:32:33;;;;;;;88.35;60.95;;;9.70;66.10;;;;;;5068442;28;20024;-62
2022/03/17 06:34:59;;;;;;;84.47;59.78;;;9.80;66.00;;;;;;5066910;28;20056;-63
2022/03/17 06:37:25;;;;;;;87.93;61.35;;;9.80;65.80;;;;;;5067685;28;20071;-62
2022/03/17 06:39:51;;;;;;;84.07;61.90;;;9.90;65.70;;;;;;5053212;28;20048;-63
2022/03/17 06:42:17;;;;;;;80.40;62.53;;;9.90;65.50;;;;;;5069766;28;20678;-62
2022/03/17 06:44:42;;;;;;;74.28;58.28;;;10.00;65.40;;;;;;5069384;28;20416;-63
2022/03/17 06:47:08;;;;;;;79.72;58.88;;;10.10;64.90;;;;;;5069255;28;20032;-64
2022/03/17 06:49:34;;;;;;;83.20;64.15;;;10.10;64.70;;;;;;5070056;28;20037;-62
2022/03/17 06:51:59;;;;;;;85.43;61.35;;;10.10;64.70;;;;;;5068899;28;20036;-63
2022/03/17 06:54:25;;;;;;;79.78;61.47;;;10.30;64.60;;;;;;5069417;28;20029;-63
2022/03/17 06:56:51;;;;;;;86.00;61.25;;;10.30;64.20;;;;;;5071896;28;20060;-63
2022/03/17 06:59:17;;;;;;;87.30;63.33;;;10.40;63.90;;;;;;5067831;28;20025;-63
2022/03/17 07:01:42;;;;;;;81.80;63.22;;;10.50;63.60;;;;;;5066251;28;20028;-63
2022/03/17 07:04:08;;;;;;;80.55;60.85;;;10.50;63.20;;;;;;5068988;28;20415;-63
2022/03/17 07:06:34;;;;;;;82.85;61.13;;;10.60;63.20;;;;;;5072118;28;20041;-64
2022/03/17 07:08:59;;;;;;;78.07;61.65;;;10.70;62.80;;;;;;5068208;28;20169;-63
2022/03/17 07:11:25;;;;;;;78.57;59.47;;;10.80;62.70;;;;;;5069428;28;20424;-62
2022/03/17 07:13:51;;;;;;;77.82;61.85;;;11.00;62.40;;;;;;5069171;28;20521;-62
2022/03/17 07:16:18;;;;;;;80.70;60.38;;;11.00;61.60;;;;;;5067897;28;20028;-63
2022/03/17 07:18:44;;;;;;;80.32;60.22;;;11.00;62.00;;;;;;5072530;28;20036;-63
2022/03/17 07:21:10;;;;;;;79.15;59.53;;;11.30;61.30;;;;;;5073870;28;20074;-62
2022/03/17 07:23:36;;;;;;;77.97;59.17;;;11.50;61.00;;;;;;5073383;28;20032;-63
2022/03/17 07:26:04;;;;;;;79.18;61.83;;;11.70;60.40;;;;;;5075083;28;20756;-63
2022/03/17 07:28:30;;;;;;;92.75;62.88;;;11.90;59.30;;;;;;5063929;28;20036;-66
2022/03/17 07:30:56;;;;;;;87.60;61.90;;;12.00;59.30;;;;;;5068193;28;20334;-62
2022/03/17 07:33:21;;;;;;;74.15;59.92;;;12.20;58.50;;;;;;5071382;28;20078;-67
2022/03/17 07:35:47;;;;;;;77.88;60.10;;;12.30;58.50;;;;;;5057177;28;20544;-62
2022/03/17 07:38:13;;;;;;;83.72;62.85;;;12.40;58.10;;;;;;5066170;28;20532;-64
2022/03/17 07:40:39;;;;;;;83.32;62.03;;;12.50;57.80;;;;;;5070906;28;20028;-63
2022/03/17 07:43:04;;;;;;;83.47;61.08;;;12.80;57.50;;;;;;5069488;28;20121;-65
2022/03/17 07:45:31;;;;;;;78.43;61.45;;;13.00;56.90;;;;;;5073434;28;20012;-64
2022/03/17 07:47:56;;;;;;;76.20;60.05;;;13.10;56.10;;;;;;5070403;28;20413;-63
2022/03/17 07:50:22;;;;;;;82.50;63.05;;;13.10;55.90;;;;;;5070602;28;20091;-61
2022/03/17 07:52:48;;;;;;;78.28;63.72;;;13.20;56.00;;;;;;5071183;28;20064;-62
2022/03/17 07:55:14;;;;;;;81.70;62.72;;;13.30;55.50;;;;;;5073909;28;20025;-63
2022/03/17 07:57:40;;;;;;;77.38;62.80;;;13.40;55.00;;;;;;5075468;28;20032;-62
2022/03/17 08:00:08;;;;;;;81.07;64.15;;;13.50;55.20;;;;;;5070600;28;20024;-62
2022/03/17 08:02:34;;;;;;;82.28;61.67;;;13.70;55.60;;;;;;5072334;28;20415;-62
2022/03/17 08:05:05;;;;;;;82.30;64.32;;;13.90;54.20;;;;;;5071831;28;20100;-63
2022/03/17 08:07:32;;;;;;;82.63;62.75;;;13.80;53.40;;;;;;5052491;28;20039;-65
2022/03/17 08:09:58;;;;;;;83.05;64.63;;;13.90;53.90;;;;;;5044265;28;20330;-64
2022/03/17 08:12:26;;;;;;;82.85;62.38;;;14.00;53.80;;;;;;5058820;28;20028;-63
2022/03/17 08:14:53;;;;;;;76.63;63.50;;;14.20;53.20;;;;;;5053538;28;20019;-63
2022/03/17 08:17:19;;;;;;;80.55;64.65;;;14.20;53.00;;;;;;5046960;28;20024;-63
2022/03/17 08:19:45;;;;;;;85.35;64.65;;;14.30;53.00;;;;;;5057966;28;20030;-65
2022/03/17 08:22:11;;;;;;;78.40;61.47;;;14.50;52.60;;;;;;5050436;28;20024;-64
2022/03/17 08:24:36;;;;;;;82.90;63.03;;;14.60;52.20;;;;;;5050616;28;20500;-63
2022/03/17 08:27:03;;;;;;;78.53;61.88;;;14.70;52.20;;;;;;5055596;28;20038;-64
2022/03/17 08:29:29;;;;;;;78.53;61.50;;;14.80;51.60;;;;;;5055892;28;20329;-63
2022/03/17 08:31:55;;;;;;;79.47;63.08;;;14.90;51.50;;;;;;5051782;28;20025;-64
2022/03/17 08:34:21;;;;;;;78.05;61.42;;;15.00;51.30;;;;;;5051259;28;20028;-63
2022/03/17 08:36:48;;;;;;;77.47;61.70;;;15.00;51.00;;;;;;5054516;28;20102;-63
2022/03/17 08:39:14;;;;;;;77.20;59.20;;;15.00;50.60;;;;;;5059708;28;20035;-64
2022/03/17 08:41:41;;;;;;;78.85;61.13;;;14.80;50.60;;;;;;5063088;28;20505;-64
2022/03/17 08:44:12;;;;;;;79.00;62.25;;;14.60;51.00;;;;;;5063899;28;20020;-63
2022/03/17 08:49:24;;;;;;;76.20;59.88;;;14.50;51.60;;;;;;5065154;28;20086;-63
2022/03/17 08:51:53;;;;;;;78.18;59.60;;;14.50;51.70;;;;;;5078980;28;20238;-64
2022/03/17 08:54:23;;;;;;;75.35;58.75;;;14.60;51.70;;;;;;5068435;28;20063;-62
2022/03/17 08:56:51;;;;;;;71.78;58.80;;;14.60;51.20;;;;;;5035304;28;20492;-62
2022/03/17 08:59:17;;;;;;;67.78;53.60;;;14.60;50.90;;;;;;5059838;28;20386;-62
2022/03/17 09:01:44;;;;;;;66.43;54.15;;;14.50;50.40;;;;;;5072212;28;20037;-63
2022/03/17 09:04:14;;;;;;;67.93;55.55;;;14.40;50.40;;;;;;5068180;28;20024;-62
2022/03/17 09:06:46;;;;;;;59.42;47.55;;;14.30;50.90;;;;;;5065970;28;20074;-63
2022/03/17 09:09:12;;;;;;;71.35;50.80;;;14.30;49.70;;;;;;5054807;28;20523;-62
2022/03/17 09:11:38;;;;;;;57.83;45.58;;;14.10;50.40;;;;;;5067216;28;20075;-64
2022/03/17 09:14:04;;;;;;;56.33;44.47;;;14.00;50.30;;;;;;5065001;28;20343;-62
2022/03/17 09:16:30;;;;;;;59.22;45.65;;;13.90;49.30;;;;;;5058609;28;20020;-63
2022/03/17 09:18:57;;;;;;;56.92;44.83;;;13.80;49.90;;;;;;5055705;28;20386;-62
2022/03/17 09:21:25;;;;;;;60.83;49.33;;;13.90;49.80;;;;;;5061196;28;20033;-62
2022/03/17 09:23:51;;;;;;;60.38;47.63;;;13.80;50.20;;;;;;5058182;28;20087;-62
2022/03/17 09:26:17;;;;;;;58.25;44.83;;;13.80;50.00;;;;;;5059064;28;20478;-62
2022/03/17 09:28:43;;;;;;;58.95;46.78;;;13.80;49.60;;;;;;5059036;28;20032;-62
2022/03/17 09:31:09;;;;;;;56.58;43.72;;;13.70;49.60;;;;;;5060416;28;20013;-63
2022/03/17 09:33:35;;;;;;;55.60;44.50;;;13.70;50.10;;;;;;5065001;28;20036;-63
2022/03/17 09:36:02;;;;;;;58.03;45.97;;;13.80;49.90;;;;;;5065241;28;20514;-62
2022/03/17 09:38:28;;;;;;;53.60;44.22;;;13.80;50.20;;;;;;5054615;28;20036;-63
2022/03/17 09:40:55;;;;;;;53.08;42.13;;;13.80;49.80;;;;;;5064007;28;20099;-63
2022/03/17 09:43:28;;;;;;;64.93;43.92;;;13.90;49.80;;;;;;5074440;28;20098;-62
2022/03/17 09:45:58;;;;;;;55.25;43.95;;;13.90;49.70;;;;;;5066960;28;20133;-62
2022/03/17 09:48:26;;;;;;;53.28;42.78;;;14.10;49.70;;;;;;5059177;28;20062;-63
2022/03/17 09:50:56;;;;;;;53.67;43.65;;;14.30;49.60;;;;;;5058721;28;20058;-62
2022/03/17 09:53:26;;;;;;;54.90;44.33;;;14.50;49.10;;;;;;5054440;28;20032;-62
2022/03/17 09:55:52;;;;;;;60.65;42.92;;;14.50;48.60;;;;;;5059178;28;20052;-62
2022/03/17 09:58:18;;;;;;;57.17;43.67;;;14.50;48.50;;;;;;5063776;28;20158;-65
2022/03/17 10:00:53;;;;;;;55.35;43.42;;;14.60;48.50;;;;;;5060224;28;20036;-63
2022/03/17 10:03:21;;;;;;;57.28;44.58;;;14.80;48.10;;;;;;5053571;28;20103;-61
2022/03/17 10:05:48;;;;;;;56.08;43.60;;;14.80;48.20;;;;;;5055280;28;20060;-63
2022/03/17 10:08:16;;;;;;;55.53;42.30;;;14.70;48.10;;;;;;5064086;28;20029;-63
2022/03/17 10:10:43;;;;;;;53.50;42.92;;;14.70;47.90;;;;;;5059440;28;20040;-63
2022/03/17 10:13:18;;;;;;;50.80;41.75;;;14.70;48.40;;;;;;5050895;28;20040;-61
2022/03/17 10:16:04;;;;;;;48.00;39.92;;;14.70;48.10;;;;;;5058400;28;20032;-63
2022/03/17 10:18:30;;;;;;;61.63;41.60;;;14.50;47.70;;;;;;5056577;28;20024;-61
2022/03/17 10:21:06;;;;;;;46.85;39.72;;;14.50;48.50;;;;;;5065301;28;20035;-62
2022/03/17 10:23:33;;;;;;;50.83;41.45;;;14.50;48.60;;;;;;5042726;28;20028;-64
2022/03/17 10:25:59;;;;;;;49.60;41.33;;;14.60;48.60;;;;;;5061955;28;20077;-63
2022/03/17 10:28:44;;;;;;;47.80;38.85;;;14.50;48.60;;;;;;5042213;28;20032;-63
2022/03/17 10:31:11;;;;;;;47.97;38.15;;;14.60;48.10;;;;;;5045634;28;20124;-63
2022/03/17 10:33:37;;;;;;;50.33;38.08;;;14.70;47.80;;;;;;5034938;28;20039;-64
2022/03/17 10:36:22;;;;;;;43.40;35.38;;;14.80;47.30;;;;;;5049959;28;20029;-63
2022/03/17 10:38:51;;;;;;;43.13;36.25;;;14.70;46.50;;;;;;5050850;28;20381;-64
2022/03/17 10:41:17;;;;;;;42.03;35.50;;;14.80;46.70;;;;;;5052318;28;20083;-63
2022/03/17 10:43:43;;;;;;;46.15;35.97;;;14.90;45.80;;;;;;5060043;28;20423;-63
2022/03/17 10:46:20;;;;;;;47.50;37.88;;;14.70;45.90;;;;;;5072544;28;20480;-62
2022/03/17 10:49:14;;;;;;;43.75;37.17;;;14.50;45.80;;;;;;5072087;28;20036;-63
2022/03/17 10:51:42;;;;;;;47.53;37.53;;;14.30;46.00;;;;;;5077294;28;20082;-64
2022/03/17 10:54:09;;;;;;;47.22;37.38;;;14.10;46.50;;;;;;5086450;28;20025;-63
2022/03/17 10:56:37;;;;;;;50.28;37.60;;;14.20;46.40;;;;;;5075331;28;20056;-63
2022/03/17 10:59:03;;;;;;;51.78;36.35;;;14.20;46.20;;;;;;5082872;28;20060;-62
2022/03/17 11:01:38;;;;;;;41.72;35.03;;;14.30;45.90;;;;;;5056308;28;20032;-62
2022/03/17 11:04:04;;;;;;;40.40;32.95;;;14.40;45.40;;;;;;5073190;28;20028;-61
2022/03/17 11:06:31;;;;;;;39.90;31.60;;;14.30;43.80;;;;;;5087724;28;20052;-63
2022/03/17 11:09:01;;;;;;;43.38;31.33;;;14.30;43.10;;;;;;5073004;28;20123;-63
2022/03/17 11:11:29;;;;;;;38.80;30.17;;;14.20;42.90;;;;;;5070001;28;20051;-63
2022/03/17 11:13:59;;;;;;;38.25;29.08;;;14.30;42.40;;;;;;5069703;28;20021;-62
2022/03/17 11:16:46;;;;;;;37.53;27.17;;;14.50;42.10;;;;;;5079472;28;20033;-60
2022/03/17 11:19:17;;;;;;;37.90;25.33;;;14.50;38.70;;;;;;5076081;28;20094;-60
2022/03/17 11:21:48;;;;;;;32.85;26.75;;;14.40;39.00;;;;;;5071765;28;20236;-60
2022/03/17 11:24:22;;;;;;;31.60;26.25;;;14.50;39.90;;;;;;5073493;28;20112;-59
2022/03/17 11:26:49;;;;;;;35.33;27.85;;;14.40;39.90;;;;;;5074280;28;20028;-62
2022/03/17 11:29:21;;;;;;;38.22;27.85;;;14.40;40.70;;;;;;5070888;28;20109;-61
2022/03/17 11:31:51;;;;;;;34.08;26.23;;;14.40;40.80;;;;;;5068248;28;20024;-63
2022/03/17 11:34:38;;;;;;;32.63;24.95;;;14.70;39.20;;;;;;5078713;28;20025;-61
2022/03/17 11:37:19;;;;;;;30.25;21.92;;;14.70;36.50;;;;;;5077905;28;20499;-60
2022/03/17 11:40:03;;;;;;;36.13;24.33;;;14.50;35.20;;;;;;5074058;28;20040;-61
2022/03/17 11:42:34;;;;;;;36.47;23.17;;;14.70;35.60;;;;;;5073888;28;20104;-61
2022/03/17 11:45:09;;;;;;;30.20;21.80;;;14.70;34.70;;;;;;5071344;28;20037;-60
2022/03/17 11:47:37;;;;;;;28.88;22.08;;;14.60;34.70;;;;;;5072119;28;20048;-60
2022/03/17 11:50:22;;;;;;;35.38;23.88;;;14.50;35.30;;;;;;5076656;28;20024;-61
2022/03/17 11:53:09;;;;;;;35.72;21.70;;;14.50;35.60;;;;;;5075536;28;20094;-64
2022/03/17 11:55:46;;;;;;;30.17;21.45;;;14.70;35.10;;;;;;5076252;28;20027;-61
2022/03/17 11:58:19;;;;;;;29.60;22.00;;;15.00;34.90;;;;;;5054572;28;20112;-60
2022/03/17 12:01:14;;;;;;;35.30;21.73;;;15.20;35.10;;;;;;5070612;28;20017;-60
2022/03/17 12:03:50;;;;;;;32.25;22.10;;;15.30;34.30;;;;;;5063045;28;20021;-60
2022/03/17 12:06:33;;;;;;;30.55;22.38;;;15.20;34.70;;;;;;5055010;28;20052;-60
2022/03/17 12:09:05;;;;;;;32.40;22.27;;;15.30;35.30;;;;;;5060856;28;20048;-62
2022/03/17 12:11:43;;;;;;;24.80;20.27;;;15.40;34.50;;;;;;5080753;28;20484;-60
2022/03/17 12:14:16;;;;;;;28.42;20.60;;;15.30;33.90;;;;;;5070466;28;20174;-60
2022/03/17 12:16:47;;;;;;;25.67;20.10;;;15.40;34.40;;;;;;5088975;28;20082;-60
2022/03/17 12:19:34;;;;;;;29.92;23.25;;;15.40;33.90;;;;;;5064048;28;20032;-60
2022/03/17 12:22:04;;;;;;;30.70;21.77;;;15.30;33.90;;;;;;5071033;28;20563;-59
2022/03/17 12:24:51;;;;;;;29.27;21.27;;;15.40;34.10;;;;;;5072599;28;20033;-59
2022/03/17 12:27:29;;;;;;;30.17;21.58;;;15.50;34.40;;;;;;5069447;28;20485;-59
2022/03/17 12:30:11;;;;;;;35.15;21.00;;;15.70;33.60;;;;;;5066722;28;20031;-61
2022/03/17 12:32:58;;;;;;;34.83;20.00;;;15.80;33.80;;;;;;5069766;28;20016;-61
2022/03/17 12:35:34;;;;;;;26.20;19.90;;;15.90;32.80;;;;;;5072695;28;20472;-59
2022/03/17 12:38:08;;;;;;;26.45;18.67;;;15.80;32.60;;;;;;5072387;28;20119;-61
2022/03/17 12:40:44;;;;;;;30.02;19.65;;;15.70;32.80;;;;;;5077674;28;20032;-61
2022/03/17 12:43:15;;;;;;;26.58;19.73;;;15.70;33.60;;;;;;5063578;28;20890;-61
2022/03/17 12:45:42;;;;;;;30.77;19.38;;;15.70;32.70;;;;;;5076953;28;20021;-62
2022/03/17 12:48:12;;;;;;;22.45;17.50;;;15.70;32.40;;;;;;5069912;28;20877;-61
2022/03/17 12:50:38;;;;;;;23.42;17.10;;;15.70;31.10;;;;;;5073738;28;20043;-61
2022/03/17 12:53:03;;;;;;;22.45;18.38;;;15.60;30.50;;;;;;5068431;28;20494;-61